createdAt,value
2018-09-15T00:02:06.696Z,100483.00
2018-09-15T00:04:47.690Z,100478.00
2018-09-15T00:07:29.385Z,100476.00
2018-09-15T00:10:10.703Z,100478.00
2018-09-15T00:12:51.289Z,100477.00
2018-09-15T00:15:32.251Z,100472.00
2018-09-15T00:18:14.282Z,100476.00
2018-09-15T00:20:55.201Z,100473.00
2018-09-15T00:23:35.852Z,100471.00
2018-09-15T00:26:16.943Z,100472.00
2018-09-15T00:28:57.721Z,100468.00
2018-09-15T00:31:38.131Z,100464.00
2018-09-15T00:34:18.528Z,100461.00
2018-09-15T00:36:59.719Z,100465.00
2018-09-15T00:39:40.327Z,100469.00
2018-09-15T00:42:20.937Z,100472.00
2018-09-15T00:45:01.451Z,100464.00
2018-09-15T00:47:41.926Z,100466.00
2018-09-15T00:50:22.835Z,100462.00
2018-09-15T00:53:04.492Z,100465.00
2018-09-15T00:55:44.941Z,100460.00
2018-09-15T00:58:25.631Z,100456.00
2018-09-15T01:01:06.831Z,100452.00
2018-09-15T01:03:48.149Z,100446.00
2018-09-15T01:06:29.206Z,100447.00
2018-09-15T01:09:10.461Z,100449.00
2018-09-15T01:11:51.332Z,100448.00
2018-09-15T01:14:32.180Z,100442.00
2018-09-15T01:17:13.144Z,100445.00
2018-09-15T01:19:53.651Z,100441.00
2018-09-15T01:22:34.284Z,100431.00
2018-09-15T01:25:15.132Z,100427.00
2018-09-15T01:27:56.663Z,100428.00
2018-09-15T01:30:38.066Z,100433.00
2018-09-15T01:33:18.811Z,100437.00
2018-09-15T01:35:59.921Z,100445.00
2018-09-15T01:38:40.428Z,100442.00
2018-09-15T01:41:20.921Z,100439.00
2018-09-15T01:44:01.482Z,100441.00
2018-09-15T01:46:42.043Z,100451.00
2018-09-15T01:49:22.940Z,100458.00
2018-09-15T01:52:04.222Z,100458.00
2018-09-15T01:54:44.700Z,100454.00
2018-09-15T01:57:25.647Z,100456.00
2018-09-15T02:00:06.881Z,100460.00
2018-09-15T02:02:48.154Z,100454.00
2018-09-15T02:05:28.835Z,100459.00
2018-09-15T02:08:09.940Z,100459.00
2018-09-15T02:10:51.078Z,100462.00
2018-09-15T02:13:32.170Z,100469.00
2018-09-15T02:16:13.020Z,100466.00
2018-09-15T02:18:54.052Z,100469.00
2018-09-15T02:21:34.738Z,100476.00
2018-09-15T02:24:15.467Z,100470.00
2018-09-15T02:26:56.073Z,100471.00
2018-09-15T02:29:36.699Z,100475.00
2018-09-15T02:32:17.571Z,100477.00
2018-09-15T02:34:58.420Z,100479.00
2018-09-15T02:37:38.859Z,100489.00
2018-09-15T02:40:19.649Z,100489.00
2018-09-15T02:43:00.661Z,100485.00
2018-09-15T02:45:41.244Z,100483.00
2018-09-15T02:48:22.347Z,100484.00
2018-09-15T02:51:03.568Z,100483.00
2018-09-15T02:53:44.021Z,100476.00
2018-09-15T02:56:24.409Z,100488.00
2018-09-15T02:59:05.273Z,100489.00
2018-09-15T03:01:47.420Z,100494.00
2018-09-15T03:04:28.177Z,100481.00
2018-09-15T03:07:10.128Z,100493.00
2018-09-15T03:09:50.790Z,100496.00
2018-09-15T03:12:32.462Z,100495.00
2018-09-15T03:15:13.557Z,100497.00
2018-09-15T03:17:54.019Z,100500.00
2018-09-15T03:20:34.482Z,100501.00
2018-09-15T03:23:15.848Z,100497.00
2018-09-15T03:25:57.129Z,100501.00
2018-09-15T03:28:38.168Z,100505.00
2018-09-15T03:31:19.058Z,100504.00
2018-09-15T03:33:59.947Z,100506.00
2018-09-15T03:36:40.716Z,100504.00
2018-09-15T03:39:23.230Z,100510.00
2018-09-15T03:42:04.269Z,100511.00
2018-09-15T03:44:44.945Z,100515.00
2018-09-15T03:47:25.771Z,100511.00
2018-09-15T03:50:06.204Z,100517.00
2018-09-15T03:52:46.712Z,100518.00
2018-09-15T03:55:27.335Z,100528.00
2018-09-15T03:58:07.853Z,100537.00
2018-09-15T04:00:49.362Z,100538.00
2018-09-15T04:03:29.984Z,100546.00
2018-09-15T04:06:10.873Z,100547.00
2018-09-15T04:08:51.402Z,100554.00
2018-09-15T04:11:32.367Z,100551.00
2018-09-15T04:14:13.045Z,100548.00
2018-09-15T04:16:54.190Z,100556.00
2018-09-15T04:19:37.001Z,100556.00
2018-09-15T04:22:17.473Z,100563.00
2018-09-15T04:24:58.416Z,100559.00
2018-09-15T04:27:39.470Z,100566.00
2018-09-15T04:30:20.014Z,100568.00
2018-09-15T04:33:00.980Z,100572.00
2018-09-15T04:35:41.685Z,100575.00
2018-09-15T04:38:22.665Z,100580.00
2018-09-15T04:41:03.193Z,100573.00
2018-09-15T04:43:43.760Z,100581.00
2018-09-15T04:46:24.692Z,100569.00
2018-09-15T04:49:05.949Z,100577.00
2018-09-15T04:51:46.648Z,100574.00
2018-09-15T04:54:27.182Z,100574.00
2018-09-15T04:57:08.387Z,100578.00
2018-09-15T04:59:49.709Z,100581.00
2018-09-15T05:02:30.233Z,100588.00
2018-09-15T05:05:10.763Z,100595.00
2018-09-15T05:07:51.680Z,100594.00
2018-09-15T05:10:32.444Z,100597.00
2018-09-15T05:13:13.350Z,100600.00
2018-09-15T05:15:54.083Z,100596.00
2018-09-15T05:18:34.724Z,100598.00
2018-09-15T05:21:15.856Z,100601.00
2018-09-15T05:23:56.396Z,100602.00
2018-09-15T05:26:36.942Z,100611.00
2018-09-15T05:29:17.621Z,100608.00
2018-09-15T05:32:05.029Z,100614.00
2018-09-15T05:34:45.891Z,100616.00
2018-09-15T05:37:27.121Z,100620.00
2018-09-15T05:40:07.607Z,100625.00
2018-09-15T05:42:48.707Z,100628.00
2018-09-15T05:45:29.183Z,100634.00
2018-09-15T05:48:09.649Z,100629.00
2018-09-15T05:50:50.532Z,100632.00
2018-09-15T05:53:31.366Z,100638.00
2018-09-15T05:56:12.007Z,100639.00
2018-09-15T05:58:53.109Z,100648.00
2018-09-15T06:01:34.615Z,100653.00
2018-09-15T06:04:16.731Z,100654.00
2018-09-15T06:06:58.005Z,100653.00
2018-09-15T06:09:38.541Z,100653.00
2018-09-15T06:12:19.038Z,100652.00
2018-09-15T06:14:59.604Z,100649.00
2018-09-15T06:17:40.967Z,100645.00
2018-09-15T06:20:21.854Z,100650.00
2018-09-15T06:23:02.389Z,100655.00
2018-09-15T06:25:42.893Z,100659.00
2018-09-15T06:28:24.645Z,100654.00
2018-09-15T06:31:07.062Z,100663.00
2018-09-15T06:33:47.759Z,100668.00
2018-09-15T06:36:28.393Z,100677.00
2018-09-15T06:39:10.574Z,100685.00
2018-09-15T06:41:52.248Z,100683.00
2018-09-15T06:44:32.936Z,100683.00
2018-09-15T06:47:13.777Z,100682.00
2018-09-15T06:49:54.634Z,100680.00
2018-09-15T06:52:35.235Z,100682.00
2018-09-15T06:55:15.708Z,100688.00
2018-09-15T06:57:56.602Z,100691.00
2018-09-15T07:00:37.679Z,100695.00
2018-09-15T07:03:18.650Z,100701.00
2018-09-15T07:05:59.900Z,100703.00
2018-09-15T07:08:40.608Z,100694.00
2018-09-15T07:11:21.373Z,100705.00
2018-09-15T07:14:02.062Z,100713.00
2018-09-15T07:16:42.611Z,100715.00
2018-09-15T07:19:23.847Z,100719.00
2018-09-15T07:22:05.045Z,100718.00
2018-09-15T07:24:46.039Z,100724.00
2018-09-15T07:27:27.444Z,100728.00
2018-09-15T07:30:09.373Z,100721.00
2018-09-15T07:32:49.892Z,100723.00
2018-09-15T07:35:31.538Z,100729.00
2018-09-15T07:38:12.233Z,100729.00
2018-09-15T07:40:52.762Z,100726.00
2018-09-15T07:43:34.036Z,100738.00
2018-09-15T07:46:15.021Z,100741.00
2018-09-15T07:48:55.925Z,100747.00
2018-09-15T07:51:36.742Z,100747.00
2018-09-15T07:54:17.439Z,100747.00
2018-09-15T07:56:57.821Z,100750.00
2018-09-15T07:59:38.472Z,100744.00
2018-09-15T08:02:20.738Z,100745.00
2018-09-15T08:05:01.886Z,100743.00
2018-09-15T08:07:43.178Z,100750.00
2018-09-15T08:10:23.562Z,100751.00
2018-09-15T08:13:04.961Z,100754.00
2018-09-15T08:15:46.425Z,100761.00
2018-09-15T08:18:27.279Z,100755.00
2018-09-15T08:21:08.169Z,100761.00
2018-09-15T08:23:49.040Z,100760.00
2018-09-15T08:26:29.890Z,100749.00
2018-09-15T08:29:10.415Z,100755.00
2018-09-15T08:31:51.930Z,100753.00
2018-09-15T08:34:33.339Z,100761.00
2018-09-15T08:37:14.159Z,100764.00
2018-09-15T08:39:55.302Z,100763.00
2018-09-15T08:42:36.109Z,100759.00
2018-09-15T08:45:17.784Z,100761.00
2018-09-15T08:47:58.728Z,100763.00
2018-09-15T08:50:40.273Z,100772.00
2018-09-15T08:53:22.485Z,100761.00
2018-09-15T08:56:03.733Z,100754.00
2018-09-15T08:58:45.270Z,100760.00
2018-09-15T09:01:26.188Z,100776.00
2018-09-15T09:04:06.999Z,100772.00
2018-09-15T09:06:49.000Z,100779.00
2018-09-15T09:09:30.784Z,100776.00
2018-09-15T09:12:11.357Z,100782.00
2018-09-15T09:14:52.492Z,100781.00
2018-09-15T09:17:33.159Z,100784.00
2018-09-15T09:20:14.300Z,100782.00
2018-09-15T09:22:55.177Z,100781.00
2018-09-15T09:25:35.820Z,100777.00
2018-09-15T09:28:17.090Z,100782.00
2018-09-15T09:30:57.817Z,100759.00
2018-09-15T09:33:38.973Z,100777.00
2018-09-15T09:36:19.929Z,100755.00
2018-09-15T09:39:01.100Z,100761.00
2018-09-15T09:41:42.707Z,100764.00
2018-09-15T09:44:24.174Z,100785.00
2018-09-15T09:47:04.858Z,100769.00
2018-09-15T09:49:46.718Z,100772.00
2018-09-15T09:52:27.201Z,100786.00
2018-09-15T09:55:08.295Z,100779.00
2018-09-15T09:57:49.395Z,100776.00
2018-09-15T10:00:35.356Z,100784.00
2018-09-15T10:03:15.825Z,100775.00
2018-09-15T10:05:57.080Z,100777.00
2018-09-15T10:08:37.889Z,100764.00
2018-09-15T10:11:20.501Z,100800.00
2018-09-15T10:14:01.765Z,100778.00
2018-09-15T10:16:42.762Z,100795.00
2018-09-15T10:19:24.144Z,100764.00
2018-09-15T10:22:05.712Z,100773.00
2018-09-15T10:24:47.560Z,100773.00
2018-09-15T10:27:28.630Z,100766.00
2018-09-15T10:30:09.753Z,100786.00
2018-09-15T10:32:51.016Z,100774.00
2018-09-15T10:35:32.073Z,100797.00
2018-09-15T10:38:12.922Z,100790.00
2018-09-15T10:40:53.827Z,100765.00
2018-09-15T10:43:34.856Z,100777.00
2018-09-15T10:46:15.639Z,100773.00
2018-09-15T10:48:56.367Z,100792.00
2018-09-15T10:51:37.326Z,100782.00
2018-09-15T10:54:18.079Z,100786.00
2018-09-15T10:56:58.543Z,100779.00
2018-09-15T10:59:39.721Z,100761.00
2018-09-15T11:02:20.635Z,100761.00
2018-09-15T11:05:01.463Z,100769.00
2018-09-15T11:07:42.479Z,100775.00
2018-09-15T11:10:23.062Z,100772.00
2018-09-15T11:13:03.709Z,100786.00
2018-09-15T11:15:44.748Z,100800.00
2018-09-15T11:18:28.597Z,100784.00
2018-09-15T11:21:09.319Z,100791.00
2018-09-15T11:23:49.831Z,100783.00
2018-09-15T11:26:30.799Z,100785.00
2018-09-15T11:29:11.391Z,100782.00
2018-09-15T11:31:52.173Z,100790.00
2018-09-15T11:34:33.097Z,100793.00
2018-09-15T11:37:13.617Z,100787.00
2018-09-15T11:39:54.218Z,100788.00
2018-09-15T11:42:34.756Z,100790.00
2018-09-15T11:45:15.392Z,100764.00
2018-09-15T11:47:56.573Z,100782.00
2018-09-15T11:50:38.340Z,100784.00
2018-09-15T11:53:18.933Z,100778.00
2018-09-15T11:55:59.709Z,100771.00
2018-09-15T11:58:40.324Z,100776.00
2018-09-15T12:01:20.928Z,100748.00
2018-09-15T12:04:02.933Z,100770.00
2018-09-15T12:06:45.213Z,100769.00
2018-09-15T12:09:25.913Z,100775.00
2018-09-15T12:12:06.747Z,100774.00
2018-09-15T12:14:47.588Z,100772.00
2018-09-15T12:17:28.058Z,100753.00
2018-09-15T12:20:09.274Z,100756.00
2018-09-15T12:22:51.236Z,100767.00
2018-09-15T12:25:32.108Z,100767.00
2018-09-15T12:28:13.550Z,100783.00
2018-09-15T12:30:54.110Z,100781.00
2018-09-15T12:33:35.901Z,100755.00
2018-09-15T12:36:16.799Z,100782.00
2018-09-15T12:38:57.480Z,100771.00
2018-09-15T12:41:38.813Z,100770.00
2018-09-15T12:44:19.697Z,100760.00
2018-09-15T12:47:00.903Z,100765.00
2018-09-15T12:49:42.421Z,100761.00
2018-09-15T12:52:23.288Z,100767.00
2018-09-15T12:55:04.502Z,100771.00
2018-09-15T12:57:47.286Z,100780.00
2018-09-15T13:00:29.401Z,100773.00
2018-09-15T13:03:10.856Z,100771.00
2018-09-15T13:05:51.837Z,100778.00
2018-09-15T13:08:33.318Z,100769.00
2018-09-15T13:11:14.782Z,100769.00
2018-09-15T13:13:55.513Z,100770.00
2018-09-15T13:16:36.394Z,100777.00
2018-09-15T13:19:17.534Z,100778.00
2018-09-15T13:21:58.741Z,100779.00
2018-09-15T13:24:39.510Z,100774.00
2018-09-15T13:27:20.075Z,100774.00
2018-09-15T13:30:01.606Z,100772.00
2018-09-15T13:32:42.534Z,100774.00
2018-09-15T13:35:23.630Z,100777.00
2018-09-15T13:38:05.434Z,100777.00
2018-09-15T13:40:45.869Z,100773.00
2018-09-15T13:43:26.566Z,100769.00
2018-09-15T13:46:07.200Z,100773.00
2018-09-15T13:48:48.308Z,100769.00
2018-09-15T13:51:29.304Z,100765.00
2018-09-15T13:54:10.256Z,100779.00
2018-09-15T13:56:50.889Z,100786.00
2018-09-15T13:59:31.998Z,100775.00
2018-09-15T14:02:12.505Z,100777.00
2018-09-15T14:04:53.737Z,100777.00
2018-09-15T14:07:34.860Z,100781.00
2018-09-15T14:10:19.015Z,100781.00
2018-09-15T14:12:56.101Z,100771.00
2018-09-15T14:15:36.637Z,100778.00
2018-09-15T14:18:17.156Z,100778.00
2018-09-15T14:20:58.124Z,100787.00
2018-09-15T14:23:39.370Z,100773.00
2018-09-15T14:26:20.251Z,100781.00
2018-09-15T14:29:00.806Z,100774.00
2018-09-15T14:31:41.244Z,100771.00
2018-09-15T14:34:22.049Z,100780.00
2018-09-15T14:37:04.148Z,100781.00
2018-09-15T14:39:45.047Z,100778.00
2018-09-15T14:42:25.779Z,100782.00
2018-09-15T14:45:06.600Z,100780.00
2018-09-15T14:47:47.294Z,100781.00
2018-09-15T14:50:28.400Z,100785.00
2018-09-15T14:53:09.168Z,100790.00
2018-09-15T14:55:50.000Z,100788.00
2018-09-15T14:58:31.892Z,100787.00
2018-09-15T15:01:12.869Z,100785.00
2018-09-15T15:03:53.705Z,100787.00
2018-09-15T15:06:35.324Z,100787.00
2018-09-15T15:09:15.755Z,100783.00
2018-09-15T15:11:56.381Z,100787.00
2018-09-15T15:14:37.985Z,100784.00
2018-09-15T15:17:19.699Z,100780.00
2018-09-15T15:20:00.505Z,100779.00
2018-09-15T15:22:41.852Z,100771.00
2018-09-15T15:25:22.977Z,100779.00
2018-09-15T15:28:03.631Z,100776.00
2018-09-15T15:30:45.078Z,100775.00
2018-09-15T15:33:26.237Z,100774.00
2018-09-15T15:36:07.634Z,100772.00
2018-09-15T15:38:48.584Z,100774.00
2018-09-15T15:41:29.080Z,100765.00
2018-09-15T15:44:10.008Z,100765.00
2018-09-15T15:46:50.505Z,100764.00
2018-09-15T15:49:30.985Z,100767.00
2018-09-15T15:52:12.485Z,100768.00
2018-09-15T15:54:52.843Z,100770.00
2018-09-15T15:57:33.404Z,100772.00
2018-09-15T16:00:14.210Z,100769.00
2018-09-15T16:02:54.776Z,100776.00
2018-09-15T16:05:35.349Z,100786.00
2018-09-15T16:08:15.964Z,100788.00
2018-09-15T16:10:56.597Z,100788.00
2018-09-15T16:13:37.262Z,100785.00
2018-09-15T16:16:18.099Z,100787.00
2018-09-15T16:18:58.860Z,100784.00
2018-09-15T16:21:39.265Z,100786.00
2018-09-15T16:24:19.880Z,100788.00
2018-09-15T16:27:00.691Z,100792.00
2018-09-15T16:29:41.444Z,100784.00
2018-09-15T16:32:22.158Z,100783.00
2018-09-15T16:35:02.793Z,100781.00
2018-09-15T16:37:43.255Z,100782.00
2018-09-15T16:40:24.209Z,100782.00
2018-09-15T16:43:05.401Z,100782.00
2018-09-15T16:45:47.126Z,100781.00
2018-09-15T16:48:27.587Z,100785.00
2018-09-15T16:51:08.530Z,100786.00
2018-09-15T16:53:49.023Z,100784.00
2018-09-15T16:56:29.453Z,100787.00
2018-09-15T16:59:10.681Z,100796.00
2018-09-15T17:01:51.645Z,100797.00
2018-09-15T17:04:32.577Z,100794.00
2018-09-15T17:07:13.448Z,100796.00
2018-09-15T17:09:54.159Z,100800.00
2018-09-15T17:12:35.246Z,100800.00
2018-09-15T17:15:15.860Z,100804.00
2018-09-15T17:17:56.892Z,100807.00
2018-09-15T17:20:37.720Z,100809.00
2018-09-15T17:23:18.342Z,100812.00
2018-09-15T17:25:58.784Z,100822.00
2018-09-15T17:28:39.334Z,100826.00
2018-09-15T17:31:20.122Z,100829.00
2018-09-15T17:34:00.842Z,100839.00
2018-09-15T17:36:41.926Z,100839.00
2018-09-15T17:39:22.589Z,100846.00
2018-09-15T17:42:03.522Z,100847.00
2018-09-15T17:44:45.920Z,100849.00
2018-09-15T17:47:26.311Z,100854.00
2018-09-15T17:50:07.098Z,100858.00
2018-09-15T17:52:47.655Z,100858.00
2018-09-15T17:55:28.352Z,100859.00
2018-09-15T17:58:09.133Z,100862.00
2018-09-15T18:03:35.736Z,100854.00
2018-09-15T18:06:16.744Z,100858.00
2018-09-15T18:08:57.228Z,100862.00
2018-09-15T18:11:38.596Z,100869.00
2018-09-15T18:14:19.327Z,100874.00
2018-09-15T18:17:00.732Z,100873.00
2018-09-15T18:19:41.588Z,100873.00
2018-09-15T18:22:22.698Z,100876.00
2018-09-15T18:25:03.539Z,100882.00
2018-09-15T18:27:44.394Z,100880.00
2018-09-15T18:30:25.712Z,100881.00
2018-09-15T18:33:06.197Z,100883.00
2018-09-15T18:35:48.112Z,100884.00
2018-09-15T18:38:29.175Z,100887.00
2018-09-15T18:41:10.830Z,100886.00
2018-09-15T18:43:51.886Z,100893.00
2018-09-15T18:46:32.682Z,100897.00
2018-09-15T18:49:13.469Z,100896.00
2018-09-15T18:51:54.403Z,100900.00
2018-09-15T18:54:34.921Z,100901.00
2018-09-15T18:57:15.777Z,100902.00
2018-09-15T18:59:56.790Z,100896.00
2018-09-15T19:02:38.177Z,100898.00
2018-09-15T19:05:18.789Z,100899.00
2018-09-15T19:07:59.626Z,100902.00
2018-09-15T19:10:41.189Z,100906.00
2018-09-15T19:13:22.203Z,100905.00
2018-09-15T19:16:02.624Z,100917.00
2018-09-15T19:18:43.642Z,100918.00
2018-09-15T19:21:24.257Z,100921.00
2018-09-15T19:24:05.357Z,100921.00
2018-09-15T19:26:46.286Z,100922.00
2018-09-15T19:29:28.064Z,100920.00
2018-09-15T19:32:08.703Z,100924.00
2018-09-15T19:34:50.118Z,100929.00
2018-09-15T19:37:30.607Z,100927.00
2018-09-15T19:40:11.179Z,100932.00
2018-09-15T19:42:52.399Z,100941.00
2018-09-15T19:45:33.314Z,100937.00
2018-09-15T19:48:14.043Z,100941.00
2018-09-15T19:50:55.038Z,100936.00
2018-09-15T19:53:36.006Z,100939.00
2018-09-15T19:56:16.600Z,100941.00
2018-09-15T19:58:57.709Z,100938.00
2018-09-15T20:01:38.666Z,100935.00
2018-09-15T20:04:19.139Z,100936.00
2018-09-15T20:06:59.858Z,100941.00
2018-09-15T20:09:40.683Z,100944.00
2018-09-15T20:12:21.978Z,100943.00
2018-09-15T20:15:02.532Z,100944.00
2018-09-15T20:17:41.831Z,100944.00
2018-09-15T20:20:21.892Z,100946.00
2018-09-15T20:23:02.450Z,100948.00
2018-09-15T20:25:43.967Z,100949.00
2018-09-15T20:28:24.937Z,100949.00
2018-09-15T20:31:05.964Z,100952.00
2018-09-15T20:33:47.935Z,100961.00
2018-09-15T20:36:28.434Z,100966.00
2018-09-15T20:39:11.164Z,100968.00
2018-09-15T20:41:52.171Z,100971.00
2018-09-15T20:44:32.669Z,100975.00
2018-09-15T20:47:13.896Z,100973.00
2018-09-15T20:49:55.527Z,100979.00
2018-09-15T20:52:36.462Z,100980.00
2018-09-15T20:55:16.960Z,100984.00
2018-09-15T20:57:58.045Z,100976.00
2018-09-15T21:00:38.649Z,100997.00
2018-09-15T21:03:20.069Z,100997.00
2018-09-15T21:06:01.836Z,101001.00
2018-09-15T21:08:42.241Z,101000.00
2018-09-15T21:11:22.688Z,101001.00
2018-09-15T21:14:03.527Z,101002.00
2018-09-15T21:16:44.258Z,101010.00
2018-09-15T21:19:24.791Z,101007.00
2018-09-15T21:22:05.595Z,101012.00
2018-09-15T21:24:47.717Z,101019.00
2018-09-15T21:27:28.495Z,101024.00
2018-09-15T21:30:09.812Z,101027.00
2018-09-15T21:32:51.041Z,101029.00
2018-09-15T21:35:31.667Z,101028.00
2018-09-15T21:38:12.422Z,101028.00
2018-09-15T21:40:53.620Z,101027.00
2018-09-15T21:43:34.714Z,101030.00
2018-09-15T21:46:15.393Z,101024.00
2018-09-15T21:48:56.767Z,101037.00
2018-09-15T21:51:37.593Z,101031.00
2018-09-15T21:54:18.371Z,101034.00
2018-09-15T21:56:59.411Z,101038.00
2018-09-15T21:59:40.311Z,101037.00
2018-09-15T22:02:23.063Z,101037.00
2018-09-15T22:05:03.686Z,101041.00
2018-09-15T22:07:45.082Z,101040.00
2018-09-15T22:10:25.640Z,101046.00
2018-09-15T22:13:06.954Z,101046.00
2018-09-15T22:15:48.374Z,101046.00
2018-09-15T22:18:29.788Z,101045.00
2018-09-15T22:21:10.927Z,101044.00
2018-09-15T22:23:52.534Z,101054.00
2018-09-15T22:26:33.899Z,101052.00
2018-09-15T22:29:15.349Z,101054.00
2018-09-15T22:31:56.218Z,101063.00
2018-09-15T22:34:36.997Z,101062.00
2018-09-15T22:37:17.932Z,101064.00
2018-09-15T22:39:58.330Z,101058.00
2018-09-15T22:42:39.088Z,101068.00
2018-09-15T22:45:19.830Z,101063.00
2018-09-15T22:48:00.515Z,101067.00
2018-09-15T22:50:41.821Z,101067.00
2018-09-15T22:53:22.239Z,101068.00
2018-09-15T22:56:03.980Z,101072.00
2018-09-15T22:58:44.920Z,101082.00
2018-09-15T23:01:25.717Z,101083.00
2018-09-15T23:04:08.861Z,101082.00
2018-09-15T23:06:49.692Z,101080.00
2018-09-15T23:09:30.890Z,101084.00
2018-09-15T23:12:11.736Z,101084.00
2018-09-15T23:14:52.612Z,101085.00
2018-09-15T23:17:33.920Z,101086.00
2018-09-15T23:20:15.368Z,101086.00
2018-09-15T23:22:55.828Z,101085.00
2018-09-15T23:25:36.392Z,101086.00
2018-09-15T23:28:17.224Z,101084.00
2018-09-15T23:30:58.136Z,101086.00
2018-09-15T23:33:38.646Z,101087.00
2018-09-15T23:36:20.485Z,101091.00
2018-09-15T23:39:01.309Z,101094.00
2018-09-15T23:41:41.980Z,101090.00
2018-09-15T23:44:22.846Z,101086.00
2018-09-15T23:47:05.216Z,101088.00
2018-09-15T23:49:46.237Z,101091.00
2018-09-15T23:52:26.877Z,101095.00
2018-09-15T23:55:07.422Z,101091.00
2018-09-15T23:57:48.088Z,101093.00
